Time;durP1;ratioP1;P1;durP2;ratioP2;P2;SDS_P1;SDS_P2;PMS_P1;PMS_P2;Temp;Humidity;BMP_temperature;BMP_pressure;BME280_temperature;BME280_humidity;BME280_pressure;Samples;Min_cycle;Max_cycle;Signal;HPM_P1;HPM_P2
2022/07/16 16:43:29;;;;;;;4.10;2.20;;;;;;;22.01;46.08;100528.50;5113203;27;97936;-78
2022/07/16 16:45:54;;;;;;;2.47;2.20;;;;;;;21.73;46.13;100535.16;5061277;27;97126;-78
2022/07/16 16:48:20;;;;;;;3.90;2.65;;;;;;;21.81;46.34;100523.84;5060398;27;98472;-81
2022/07/16 16:50:45;;;;;;;3.22;2.00;;;;;;;21.78;46.43;100521.41;5044869;27;101175;-75
2022/07/16 16:53:11;;;;;;;2.40;2.20;;;;;;;21.51;46.44;100495.88;5048615;27;96730;-78
2022/07/16 16:55:36;;;;;;;3.38;2.50;;;;;;;21.63;46.69;100535.00;5030410;27;97026;-75
2022/07/16 16:58:02;;;;;;;6.53;2.78;;;;;;;21.64;46.92;100541.19;5053181;27;98509;-74
2022/07/16 17:00:28;;;;;;;3.58;2.40;;;;;;;21.46;46.97;100522.94;5056885;27;100955;-75
2022/07/16 17:02:54;;;;;;;3.33;2.22;;;;;;;21.32;47.38;100524.91;5050584;27;96896;-75
2022/07/16 17:05:19;;;;;;;6.32;2.40;;;;;;;21.37;47.69;100531.66;5066263;27;96838;-76
2022/07/16 17:07:45;;;;;;;3.10;2.42;;;;;;;21.40;48.64;100539.41;5061483;27;97975;-78
2022/07/16 17:10:10;;;;;;;3.08;2.50;;;;;;;21.33;50.30;100534.66;5061223;27;101139;-77
2022/07/16 17:12:37;;;;;;;2.70;2.50;;;;;;;21.41;50.88;100540.25;5046667;27;96632;-76
2022/07/16 17:15:04;;;;;;;3.20;2.90;;;;;;;21.33;51.08;100515.97;5056142;27;96828;-77
2022/07/16 17:17:31;;;;;;;4.53;3.20;;;;;;;21.43;51.42;100536.50;5040501;27;101704;-74
2022/07/16 17:19:57;;;;;;;5.88;3.25;;;;;;;21.44;50.55;100540.06;5057829;27;100944;-74
2022/07/16 17:22:26;;;;;;;3.80;3.50;;;;;;;21.29;50.59;100539.34;5054607;27;96790;-73
2022/07/16 17:24:52;;;;;;;4.70;4.28;;;;;;;21.31;50.77;100540.09;5080699;27;96922;-77
2022/07/16 17:27:18;;;;;;;38.00;34.22;;;;;;;21.35;49.87;100546.91;5048152;27;99520;-79
2022/07/16 17:29:44;;;;;;;24.42;22.20;;;;;;;21.41;50.17;100548.28;5038767;27;101300;-74
2022/07/16 17:32:10;;;;;;;41.95;33.78;;;;;;;21.25;50.73;100540.56;5054140;27;96559;-75
2022/07/16 17:34:35;;;;;;;33.85;30.80;;;;;;;21.13;51.19;100546.81;5052240;27;96895;-74
2022/07/16 17:37:01;;;;;;;44.65;38.63;;;;;;;21.01;51.23;100551.25;5064026;27;98566;-77
2022/07/16 17:39:26;;;;;;;26.13;24.05;;;;;;;21.02;51.06;100552.94;5054916;27;101110;-77
2022/07/16 17:41:52;;;;;;;35.83;31.98;;;;;;;20.95;51.57;100541.03;5053317;27;96801;-76
2022/07/16 17:44:17;;;;;;;29.90;27.17;;;;;;;21.05;51.63;100560.72;5055604;27;96780;-76
2022/07/16 17:46:43;;;;;;;35.88;32.20;;;;;;;21.12;51.80;100563.78;5033975;27;100923;-76
2022/07/16 17:51:52;;;;;;;22.02;20.23;;;;;;;20.89;51.81;100531.66;5040317;27;96615;-77
2022/07/16 17:54:18;;;;;;;17.10;15.98;;;;;;;21.05;52.13;100574.06;5040873;27;96978;-76
2022/07/16 17:56:43;;;;;;;19.45;17.92;;;;;;;20.98;52.75;100562.16;5042738;27;97838;-77
2022/07/16 17:59:09;;;;;;;5.10;1.25;;;;;;;21.00;52.72;100568.22;5011082;27;101746;-76
2022/07/16 18:01:34;;;;;;;3.92;1.42;;;;;;;21.00;52.86;100576.22;5034854;27;96842;-76
2022/07/16 18:04:00;;;;;;;3.78;1.10;;;;;;;21.05;52.87;100583.91;5041349;27;96988;-77
2022/07/16 18:06:25;;;;;;;5.25;1.30;;;;;;;20.94;52.85;100576.66;5060174;27;97469;-76
2022/07/16 18:08:51;;;;;;;1.67;1.13;;;;;;;20.90;52.59;100580.53;5057391;27;103938;-76
2022/07/16 18:11:16;;;;;;;1.35;1.00;;;;;;;20.94;52.64;100576.66;5052762;27;97225;-76
2022/07/16 18:13:42;;;;;;;4.60;1.83;;;;;;;20.89;52.67;100573.50;5054657;27;97164;-76
2022/07/16 18:16:07;;;;;;;8.70;1.45;;;;;;;20.97;53.02;100592.44;5045394;27;101329;-76
2022/07/16 18:18:33;;;;;;;3.10;1.30;;;;;;;20.90;52.92;100584.06;5034736;27;97471;-79
2022/07/16 18:20:59;;;;;;;4.63;1.23;;;;;;;20.89;52.81;100581.50;5053432;27;96958;-77
2022/07/16 18:23:24;;;;;;;2.58;1.20;;;;;;;20.86;52.75;100589.75;5058267;27;97118;-77
2022/07/16 18:25:50;;;;;;;3.80;1.60;;;;;;;20.85;52.87;100588.00;5025653;27;101432;-77
2022/07/16 18:28:15;;;;;;;2.20;1.60;;;;;;;20.88;52.78;100599.31;5039704;27;97851;-74
2022/07/16 18:30:41;;;;;;;4.63;2.08;;;;;;;20.86;52.56;100608.41;5034031;27;97114;-76
2022/07/16 18:33:07;;;;;;;5.05;1.65;;;;;;;20.84;52.90;100611.19;5032626;27;97132;-79
2022/07/16 18:35:33;;;;;;;2.83;1.52;;;;;;;20.79;53.14;100610.66;5036556;27;98116;-77
2022/07/16 18:37:58;;;;;;;8.27;1.80;;;;;;;20.68;53.32;100619.44;5037669;27;100309;-77
2022/07/16 18:40:24;;;;;;;4.25;1.45;;;;;;;20.69;53.27;100618.47;5048366;27;97313;-77
2022/07/16 18:42:50;;;;;;;3.22;1.38;;;;;;;20.56;53.76;100628.31;5037313;27;97827;-78
2022/07/16 18:45:15;;;;;;;5.03;1.33;;;;;;;20.52;53.48;100627.66;5031341;27;101037;-75
2022/07/16 18:47:41;;;;;;;7.20;1.73;;;;;;;20.42;53.50;100625.72;5041609;27;101488;-76
2022/07/16 18:50:07;;;;;;;2.55;1.25;;;;;;;20.42;53.69;100636.38;5042334;27;98386;-77
2022/07/16 18:52:32;;;;;;;3.35;1.45;;;;;;;20.26;53.76;100617.97;5022980;27;97202;-77
2022/07/16 18:54:59;;;;;;;5.30;1.63;;;;;;;20.27;54.04;100630.31;5040132;27;98341;-77
2022/07/16 18:57:26;;;;;;;9.38;1.98;;;;;;;20.28;53.97;100653.38;5050216;27;101506;-77
2022/07/16 18:59:52;;;;;;;5.78;1.92;;;;;;;20.20;54.18;100651.22;5027612;27;96674;-77
2022/07/16 19:02:17;;;;;;;4.88;2.00;;;;;;;20.05;54.64;100661.13;5041403;27;96888;-77
2022/07/16 19:04:43;;;;;;;5.75;2.38;;;;;;;20.07;54.44;100667.22;5078550;27;97632;-76
2022/07/16 19:07:08;;;;;;;7.03;1.88;;;;;;;20.03;54.56;100672.84;5047534;27;98429;-78
2022/07/16 19:09:34;;;;;;;6.03;1.80;;;;;;;19.94;54.90;100678.78;5039286;27;96694;-77
2022/07/16 19:11:59;;;;;;;3.50;1.70;;;;;;;19.79;55.25;100673.53;5030418;27;96823;-78
2022/07/16 19:14:26;;;;;;;4.47;1.50;;;;;;;19.75;55.42;100681.81;5034991;27;97599;-80
2022/07/16 19:16:52;;;;;;;3.03;1.70;;;;;;;19.69;55.62;100693.72;5049690;27;100432;-87
2022/07/16 19:19:19;;;;;;;15.82;2.55;;;;;;;19.72;57.00;100687.34;5025064;27;96815;-77
2022/07/16 19:21:45;;;;;;;5.22;1.95;;;;;;;19.71;56.29;100680.34;5024441;27;97004;-79
2022/07/16 19:24:11;;;;;;;4.55;2.05;;;;;;;19.68;56.37;100687.56;5036573;27;100981;-85
2022/07/16 19:26:36;;;;;;;9.25;2.25;;;;;;;19.64;56.39;100701.16;5050283;27;98812;-85
2022/07/16 19:29:02;;;;;;;5.40;2.15;;;;;;;19.33;59.52;100697.81;5040682;27;97309;-87
2022/07/16 19:31:28;;;;;;;5.32;2.20;;;;;;;19.48;57.61;100717.28;5020857;27;97009;-85
2022/07/16 19:33:55;;;;;;;7.57;2.47;;;;;;;19.17;nan;100703.28;5031122;27;98676;-84
2022/07/16 19:36:21;;;;;;;4.75;2.13;;;;;;;19.11;58.96;100721.44;5021160;27;100409;-86
2022/07/16 19:38:48;;;;;;;33.70;4.13;;;;;;;19.21;57.59;100712.78;5040974;27;97420;-87
2022/07/16 19:41:14;;;;;;;7.45;1.90;;;;;;;19.10;58.97;100731.22;5052976;27;97488;-87
2022/07/16 19:43:39;;;;;;;7.07;2.00;;;;;;;19.02;58.69;100735.31;5051577;27;100869;-73
2022/07/16 19:46:05;;;;;;;8.18;2.20;;;;;;;18.87;59.04;100740.63;5023003;27;101031;-72
2022/07/16 19:48:30;;;;;;;5.13;2.38;;;;;;;18.77;58.67;100737.72;5024087;27;97256;-72
2022/07/16 19:50:56;;;;;;;4.28;2.42;;;;;;;18.88;58.33;100750.34;5023814;27;97197;-72
2022/07/16 19:53:21;;;;;;;6.88;2.22;;;;;;;18.72;59.01;100750.38;5063577;27;101589;-72
2022/07/16 19:58:31;;;;;;;5.20;2.70;;;;;;;18.62;58.23;100743.94;5046106;27;96843;-72
2022/07/16 20:00:56;;;;;;;5.63;2.70;;;;;;;18.73;58.23;100754.81;5038907;27;96877;-72
2022/07/16 20:03:22;;;;;;;4.18;2.50;;;;;;;18.69;57.82;100763.03;5021562;27;101235;-72
2022/07/16 20:05:48;;;;;;;8.02;2.80;;;;;;;18.64;57.77;100765.09;5035563;27;100661;-72
2022/07/16 20:08:13;;;;;;;7.18;2.38;;;;;;;18.47;58.11;100766.09;5041111;27;96761;-74
2022/07/16 20:10:40;;;;;;;5.40;2.53;;;;;;;18.40;58.56;100760.31;5017523;27;96927;-72
2022/07/16 20:13:06;;;;;;;7.28;2.80;;;;;;;18.31;58.42;100774.16;5040619;27;101123;-72
2022/07/16 20:15:31;;;;;;;4.97;2.58;;;;;;;18.23;57.85;100769.28;5037875;27;97348;-72
2022/07/16 20:17:57;;;;;;;4.60;2.60;;;;;;;18.14;58.13;100766.31;5017852;27;96887;-72
2022/07/16 20:20:23;;;;;;;6.40;2.40;;;;;;;18.11;57.68;100777.97;5014653;27;97414;-72
2022/07/16 20:22:48;;;;;;;6.18;2.65;;;;;;;18.27;56.63;100784.13;5034825;27;100976;-73
2022/07/16 20:25:14;;;;;;;4.28;2.17;;;;;;;18.22;56.10;100786.19;5051946;27;97892;-72
2022/07/16 20:27:44;;;;;;;8.55;2.72;;;;;;;18.14;55.31;100790.22;5016810;27;96720;-75
2022/07/16 20:30:10;;;;;;;3.87;2.07;;;;;;;17.99;55.53;100795.47;5047934;27;96963;-72
2022/07/16 20:32:36;;;;;;;7.10;2.35;;;;;;;17.93;55.75;100795.84;5055025;27;98411;-76
2022/07/16 20:35:03;;;;;;;4.63;2.15;;;;;;;17.94;55.69;100797.53;5052972;27;97506;-76
2022/07/16 20:37:29;;;;;;;3.75;1.80;;;;;;;17.97;55.51;100801.81;5054700;27;97361;-72
2022/07/16 20:39:54;;;;;;;4.18;2.13;;;;;;;18.12;54.65;100808.03;5056635;27;97156;-73
2022/07/16 20:42:20;;;;;;;6.15;2.25;;;;;;;17.98;55.07;100809.72;5035917;27;97573;-75
2022/07/16 20:44:45;;;;;;;7.03;2.55;;;;;;;17.90;55.94;100819.06;5020595;27;101136;-74
2022/07/16 20:47:11;;;;;;;7.95;2.38;;;;;;;17.85;56.67;100812.19;5039590;27;97131;-74
2022/07/16 20:49:37;;;;;;;3.97;2.08;;;;;;;17.83;56.05;100822.06;5031707;27;97380;-77
2022/07/16 20:52:02;;;;;;;9.02;2.35;;;;;;;17.72;55.61;100831.53;5037579;27;100731;-75
2022/07/16 20:54:28;;;;;;;5.38;1.80;;;;;;;17.65;55.31;100823.91;5039412;27;100805;-74
2022/07/16 20:56:53;;;;;;;3.78;2.08;;;;;;;17.64;55.90;100824.00;5047274;27;96656;-74
2022/07/16 20:59:19;;;;;;;3.35;1.95;;;;;;;17.79;55.01;100838.25;5038196;27;96922;-74
2022/07/16 21:01:44;;;;;;;4.22;1.70;;;;;;;17.73;54.80;100835.91;5007852;27;101494;-74
2022/07/16 21:04:10;;;;;;;5.15;1.83;;;;;;;17.54;54.61;100836.03;5052048;27;101473;-74
2022/07/16 21:06:35;;;;;;;2.97;1.52;;;;;;;17.41;54.39;100836.72;5029648;27;96946;-81
2022/07/16 21:09:01;;;;;;;4.18;1.88;;;;;;;17.40;54.38;100820.91;5019933;27;97265;-74
2022/07/16 21:11:26;;;;;;;4.30;1.65;;;;;;;17.45;54.93;100844.50;5039862;27;101456;-73
2022/07/16 21:13:52;;;;;;;5.63;2.05;;;;;;;17.35;54.04;100846.81;5038711;27;101257;-74
2022/07/16 21:16:17;;;;;;;6.30;1.90;;;;;;;17.32;53.95;100847.84;5040150;27;96750;-74
2022/07/16 21:18:43;;;;;;;3.17;1.73;;;;;;;17.30;54.32;100847.06;5042592;27;96855;-77
2022/07/16 21:21:08;;;;;;;5.53;2.05;;;;;;;17.18;54.34;100827.34;5050562;27;97835;-74
2022/07/16 21:23:34;;;;;;;4.85;1.77;;;;;;;17.33;53.44;100846.03;5048993;27;100796;-74
2022/07/16 21:25:59;;;;;;;4.32;2.13;;;;;;;17.31;52.82;100855.91;5039968;27;97143;-73
2022/07/16 21:28:25;;;;;;;3.63;2.00;;;;;;;17.07;53.81;100831.50;5040305;27;97128;-75
2022/07/16 21:30:50;;;;;;;3.13;1.73;;;;;;;17.14;53.39;100862.94;5037409;27;97471;-74
2022/07/16 21:33:16;;;;;;;6.05;2.17;;;;;;;17.04;53.56;100858.19;5039473;27;101275;-74
2022/07/16 21:35:41;;;;;;;7.22;2.08;;;;;;;17.03;53.43;100859.16;5048306;27;96822;-75
2022/07/16 21:38:07;;;;;;;61.13;52.92;;;;;;;16.86;52.78;100871.47;5035743;27;97758;-74
2022/07/16 21:40:33;;;;;;;5.80;1.90;;;;;;;16.79;53.88;100859.47;5039326;27;98247;-74
2022/07/16 21:42:59;;;;;;;5.82;1.85;;;;;;;16.79;53.45;100877.19;5050707;27;100580;-73
2022/07/16 21:45:24;;;;;;;6.20;2.28;;;;;;;16.73;53.40;100867.72;5047469;27;96804;-73
2022/07/16 21:47:50;;;;;;;9.30;2.55;;;;;;;16.60;52.74;100856.00;5041120;27;96839;-74
2022/07/16 21:50:16;;;;;;;7.55;2.13;;;;;;;16.72;52.67;100884.53;5083505;27;97373;-73
2022/07/16 21:52:41;;;;;;;7.60;2.45;;;;;;;16.66;53.50;100887.50;5046986;27;97768;-75
2022/07/16 21:55:07;;;;;;;7.10;2.65;;;;;;;16.58;52.98;100889.69;5052885;27;96705;-74
2022/07/16 21:57:33;;;;;;;6.50;2.20;;;;;;;16.59;53.14;100899.38;5041265;27;97194;-74
2022/07/16 21:59:58;;;;;;;5.47;2.25;;;;;;;16.59;53.33;100899.38;5019645;27;100625;-73
2022/07/16 22:02:23;;;;;;;4.70;2.22;;;;;;;16.41;53.61;100882.59;5047485;27;102735;-73
2022/07/16 22:04:49;;;;;;;6.03;2.33;;;;;;;16.36;53.59;100893.41;5052142;27;97111;-73
2022/07/16 22:07:14;;;;;;;6.20;2.33;;;;;;;16.30;52.86;100899.00;5037044;27;98643;-72
2022/07/16 22:09:40;;;;;;;7.60;1.88;;;;;;;16.50;52.77;100911.28;5066598;27;100247;-80
2022/07/16 22:12:06;;;;;;;5.80;2.17;;;;;;;16.43;52.85;100917.78;5043809;27;101275;-74
2022/07/16 22:14:31;;;;;;;5.90;2.42;;;;;;;16.45;52.94;100918.59;5055287;27;97116;-73
2022/07/16 22:16:57;;;;;;;4.95;2.22;;;;;;;16.47;52.59;100916.72;5056149;27;97095;-74
2022/07/16 22:22:06;;;;;;;5.07;2.30;;;;;;;16.47;52.81;100937.94;5042328;27;101694;-73
2022/07/16 22:24:32;;;;;;;6.32;2.38;;;;;;;16.37;52.93;100940.13;5058114;27;97340;-73
2022/07/16 22:26:57;;;;;;;11.00;3.22;;;;;;;16.34;52.02;100934.13;5040746;27;96709;-73
2022/07/16 22:29:23;;;;;;;4.57;2.30;;;;;;;16.25;52.44;100931.00;5034836;27;97858;-73
2022/07/16 22:31:48;;;;;;;9.07;2.33;;;;;;;16.21;52.25;100928.59;5045858;27;100980;-74
2022/07/16 22:34:14;;;;;;;5.90;2.17;;;;;;;16.26;52.62;100935.38;5039045;27;96836;-74
2022/07/16 22:36:39;;;;;;;4.13;2.20;;;;;;;16.21;52.00;100940.03;5023739;27;97261;-80
2022/07/16 22:39:05;;;;;;;6.00;2.00;;;;;;;16.17;51.98;100937.59;5055031;27;98065;-74
2022/07/16 22:41:30;;;;;;;6.45;2.20;;;;;;;16.07;51.70;100943.31;5037974;27;102675;-75
2022/07/16 22:43:56;;;;;;;3.70;1.80;;;;;;;16.11;52.18;100946.69;5021048;27;97270;-73
2022/07/16 22:46:22;;;;;;;5.53;2.33;;;;;;;16.07;52.26;100948.63;5048318;27;96942;-74
2022/07/16 22:48:47;;;;;;;5.82;2.30;;;;;;;16.13;51.75;100951.91;5057591;27;101023;-73
2022/07/16 22:51:13;;;;;;;4.70;2.45;;;;;;;16.09;51.54;100958.31;5043046;27;97284;-73
2022/07/16 22:53:38;;;;;;;5.32;1.95;;;;;;;15.98;51.88;100935.81;5052852;27;97153;-73
2022/07/16 22:56:04;;;;;;;3.95;2.45;;;;;;;15.86;51.22;100928.44;5042047;27;97161;-73
2022/07/16 22:58:30;;;;;;;5.78;2.20;;;;;;;16.03;51.52;100959.44;5042128;27;97658;-73
2022/07/16 23:00:55;;;;;;;5.70;2.25;;;;;;;15.95;51.53;100964.22;5037690;27;101189;-75
2022/07/16 23:03:21;;;;;;;8.40;2.53;;;;;;;15.95;51.58;100962.44;5027977;27;97164;-75
2022/07/16 23:05:46;;;;;;;7.53;2.38;;;;;;;15.88;51.95;100960.13;5053962;27;97225;-74
2022/07/16 23:08:12;;;;;;;4.78;2.30;;;;;;;15.68;52.01;100945.16;5024365;27;101601;-76
2022/07/16 23:10:37;;;;;;;5.25;2.58;;;;;;;15.78;51.68;100963.22;5058202;27;97995;-73
2022/07/16 23:13:03;;;;;;;6.05;2.05;;;;;;;15.65;52.43;100950.56;5048274;27;96826;-74
2022/07/16 23:15:28;;;;;;;5.35;2.20;;;;;;;15.71;52.59;100955.63;5058658;27;96920;-73
2022/07/16 23:17:54;;;;;;;4.72;2.00;;;;;;;15.73;52.93;100970.50;5050648;27;97709;-74
2022/07/16 23:20:19;;;;;;;2.85;1.70;;;;;;;15.67;52.28;100972.53;5052851;27;97615;-73
2022/07/16 23:22:45;;;;;;;10.35;1.98;;;;;;;15.57;53.19;100978.25;5057240;27;96708;-74
2022/07/16 23:25:10;;;;;;;6.35;1.98;;;;;;;15.31;53.48;100957.38;5049489;27;96872;-73
2022/07/16 23:27:36;;;;;;;4.15;1.85;;;;;;;15.54;53.01;100983.66;5034149;27;99472;-74
2022/07/16 23:30:01;;;;;;;4.72;1.92;;;;;;;15.64;52.81;100981.47;5052951;27;97459;-73
2022/07/16 23:32:27;;;;;;;3.33;1.90;;;;;;;15.50;52.26;100952.09;5057617;27;96803;-74
2022/07/16 23:34:52;;;;;;;6.18;1.90;;;;;;;15.52;51.97;100950.25;5041114;27;97235;-74
2022/07/16 23:37:17;;;;;;;4.93;1.95;;;;;;;15.64;52.98;100978.81;5038034;27;100747;-74
2022/07/16 23:39:43;;;;;;;9.88;1.92;;;;;;;15.65;53.10;100983.19;5035603;27;97647;-75
2022/07/16 23:42:08;;;;;;;5.25;2.05;;;;;;;15.70;52.65;100981.22;5050524;27;96636;-74
2022/07/16 23:44:34;;;;;;;5.13;2.03;;;;;;;15.63;52.37;100980.59;5047040;27;96873;-73
2022/07/16 23:46:59;;;;;;;4.68;2.13;;;;;;;15.66;51.94;100984.91;5057502;27;97752;-74
2022/07/16 23:49:25;;;;;;;4.97;1.92;;;;;;;15.57;53.10;100980.88;5041643;27;98535;-74
2022/07/16 23:51:50;;;;;;;3.88;1.85;;;;;;;15.55;52.67;100980.09;5050106;27;96736;-75
2022/07/16 23:54:16;;;;;;;6.13;2.08;;;;;;;15.59;53.00;100984.34;5076013;27;96772;-74
2022/07/16 23:56:42;;;;;;;4.95;2.30;;;;;;;15.42;52.78;100972.75;5074237;27;101333;-74
2022/07/16 23:59:07;;;;;;;9.23;2.40;;;;;;;15.51;52.15;100988.25;5057402;27;97420;-74
